createdAt,value
2019-01-04T00:00:56.296Z,39.50
2019-01-04T00:03:26.134Z,56.37
2019-01-04T00:05:55.631Z,34.73
2019-01-04T00:08:25.057Z,43.63
2019-01-04T00:10:54.513Z,52.17
2019-01-04T00:13:24.067Z,40.53
2019-01-04T00:15:53.465Z,41.50
2019-01-04T00:18:22.905Z,55.07
2019-01-04T00:20:52.507Z,48.83
2019-01-04T00:23:21.995Z,44.03
2019-01-04T00:25:51.534Z,54.53
2019-01-04T00:28:21.078Z,46.17
2019-01-04T00:30:50.480Z,48.30
2019-01-04T00:33:19.963Z,37.73
2019-01-04T00:35:49.527Z,61.07
2019-01-04T00:38:19.041Z,47.83
2019-01-04T00:40:48.623Z,46.03
2019-01-04T00:43:18.022Z,58.97
2019-01-04T00:45:47.385Z,42.23
2019-01-04T00:48:17.191Z,56.17
2019-01-04T00:50:46.671Z,58.13
2019-01-04T00:53:16.149Z,40.50
2019-01-04T00:56:38.708Z,39.30
2019-01-04T00:59:54.274Z,41.13
2019-01-04T01:03:08.986Z,44.53
2019-01-04T01:06:14.639Z,40.40
2019-01-04T01:09:11.072Z,57.07
2019-01-04T01:12:09.535Z,56.73
2019-01-04T01:15:19.878Z,47.80
2019-01-04T01:18:28.181Z,40.50
2019-01-04T01:21:42.068Z,52.57
2019-01-04T01:24:48.970Z,38.23
2019-01-04T01:27:55.275Z,49.27
2019-01-04T01:31:29.841Z,36.03
2019-01-04T01:34:26.196Z,41.63
2019-01-04T01:37:21.684Z,38.60
2019-01-04T01:40:22.097Z,46.33
2019-01-04T01:43:31.640Z,43.93
2019-01-04T01:46:43.827Z,41.77
2019-01-04T01:50:06.095Z,38.10
2019-01-04T01:52:45.653Z,38.80
2019-01-04T01:55:15.027Z,35.83
2019-01-04T01:57:44.422Z,31.93
2019-01-04T02:00:14.166Z,36.53
2019-01-04T02:02:43.614Z,56.80
2019-01-04T02:05:12.996Z,44.67
2019-01-04T02:07:42.310Z,24.20
2019-01-04T02:10:13.339Z,33.83
2019-01-04T02:12:42.712Z,38.43
2019-01-04T02:15:12.189Z,49.00
2019-01-04T02:17:41.588Z,37.50
2019-01-04T02:20:11.118Z,38.90
2019-01-04T02:22:40.665Z,35.03
2019-01-04T02:25:10.254Z,46.83
2019-01-04T02:27:39.623Z,35.37
2019-01-04T02:30:09.851Z,46.57
2019-01-04T02:32:39.536Z,42.77
2019-01-04T02:35:09.019Z,48.90
2019-01-04T02:37:38.519Z,39.43
2019-01-04T02:40:08.241Z,38.20
2019-01-04T02:42:37.695Z,36.97
2019-01-04T02:45:07.546Z,50.43
2019-01-04T02:47:36.918Z,44.33
2019-01-04T02:50:06.817Z,44.50
2019-01-04T02:52:36.342Z,68.37
2019-01-04T02:55:06.285Z,70.40
2019-01-04T02:57:35.755Z,45.00
2019-01-04T03:00:05.966Z,57.87
2019-01-04T03:02:35.357Z,46.83
2019-01-04T03:05:04.939Z,50.60
2019-01-04T03:07:34.191Z,58.47
2019-01-04T03:10:03.783Z,51.63
2019-01-04T03:12:33.131Z,51.87
2019-01-04T03:15:02.369Z,52.23
2019-01-04T03:17:31.750Z,58.57
2019-01-04T03:20:01.335Z,64.47
2019-01-04T03:22:30.686Z,64.00
2019-01-04T03:25:00.293Z,42.43
2019-01-04T03:27:29.707Z,60.47
2019-01-04T03:29:59.138Z,58.20
2019-01-04T03:32:28.433Z,58.37
2019-01-04T03:34:57.785Z,55.93
2019-01-04T03:37:27.165Z,52.37
2019-01-04T03:39:56.606Z,53.43
2019-01-04T03:42:26.124Z,54.77
2019-01-04T03:44:55.488Z,72.13
2019-01-04T03:47:24.890Z,52.30
2019-01-04T03:49:54.374Z,66.37
2019-01-04T03:52:23.722Z,57.70
2019-01-04T03:54:53.199Z,51.70
2019-01-04T03:57:22.802Z,51.30
2019-01-04T03:59:52.284Z,61.93
2019-01-04T04:02:21.798Z,64.90
2019-01-04T04:04:51.140Z,62.13
2019-01-04T04:07:20.555Z,55.40
2019-01-04T04:09:49.962Z,64.07
2019-01-04T04:12:19.348Z,62.97
2019-01-04T04:14:48.702Z,72.73
2019-01-04T04:17:18.202Z,68.20
2019-01-04T04:19:47.720Z,59.77
2019-01-04T04:22:17.218Z,82.73
2019-01-04T04:24:46.755Z,53.03
2019-01-04T04:27:16.402Z,61.93
2019-01-04T04:29:45.785Z,65.97
2019-01-04T04:32:15.228Z,58.03
2019-01-04T04:34:44.607Z,65.83
2019-01-04T04:37:13.967Z,58.57
2019-01-04T04:39:43.341Z,46.13
2019-01-04T04:42:12.638Z,54.17
2019-01-04T04:44:42.191Z,49.40
2019-01-04T04:47:11.488Z,44.43
2019-01-04T04:49:40.822Z,58.73
2019-01-04T04:52:10.182Z,44.70
2019-01-04T04:54:39.528Z,42.83
2019-01-04T04:57:08.943Z,41.33
2019-01-04T04:59:38.403Z,61.47
2019-01-04T05:02:08.149Z,43.97
2019-01-04T05:04:37.390Z,49.37
2019-01-04T05:07:06.972Z,53.90
2019-01-04T05:09:36.491Z,53.07
2019-01-04T05:12:06.166Z,54.60
2019-01-04T05:14:35.604Z,50.43
2019-01-04T05:17:05.079Z,55.23
2019-01-04T05:19:34.640Z,54.43
2019-01-04T05:22:04.028Z,54.00
2019-01-04T05:24:33.423Z,44.70
2019-01-04T05:27:02.889Z,53.13
2019-01-04T05:29:32.235Z,58.17
2019-01-04T05:32:01.597Z,48.33
2019-01-04T05:34:30.967Z,57.83
2019-01-04T05:37:00.441Z,66.60
2019-01-04T05:39:29.705Z,53.10
2019-01-04T05:41:59.086Z,55.50
2019-01-04T05:44:28.359Z,58.57
2019-01-04T05:46:57.809Z,54.67
2019-01-04T05:49:27.284Z,77.17
2019-01-04T05:51:56.842Z,42.00
2019-01-04T05:54:26.395Z,46.90
2019-01-04T05:56:55.791Z,47.60
2019-01-04T05:59:25.424Z,59.83
2019-01-04T06:01:54.806Z,50.97
2019-01-04T06:04:24.295Z,56.67
2019-01-04T06:06:53.639Z,74.63
2019-01-04T06:09:23.042Z,53.67
2019-01-04T06:11:52.392Z,48.50
2019-01-04T06:14:21.798Z,67.37
2019-01-04T06:16:51.310Z,55.83
2019-01-04T06:19:20.797Z,51.00
2019-01-04T06:21:50.292Z,53.67
2019-01-04T06:24:20.149Z,53.10
2019-01-04T06:26:49.541Z,57.90
2019-01-04T06:29:18.964Z,47.50
2019-01-04T06:31:48.645Z,62.10
2019-01-04T06:34:18.017Z,62.17
2019-01-04T06:36:47.929Z,48.33
2019-01-04T06:39:17.334Z,47.73
2019-01-04T06:41:46.677Z,61.20
2019-01-04T06:44:16.182Z,64.30
2019-01-04T06:47:13.247Z,46.93
2019-01-04T06:49:42.606Z,53.20
2019-01-04T06:52:12.160Z,48.80
2019-01-04T06:55:38.427Z,66.27
2019-01-04T06:58:08.033Z,49.93
2019-01-04T07:00:37.612Z,52.13
2019-01-04T07:03:07.028Z,69.23
2019-01-04T07:05:36.305Z,65.70
2019-01-04T07:08:05.736Z,65.13
2019-01-04T07:10:35.120Z,50.03
2019-01-04T07:13:04.518Z,52.97
2019-01-04T07:15:34.198Z,63.23
2019-01-04T07:18:03.507Z,58.00
2019-01-04T07:20:33.018Z,62.77
2019-01-04T07:23:02.528Z,49.00
2019-01-04T07:25:31.923Z,56.40
2019-01-04T07:28:01.450Z,52.13
2019-01-04T07:30:30.755Z,60.00
2019-01-04T07:33:00.234Z,56.73
2019-01-04T07:35:29.639Z,60.00
2019-01-04T07:37:59.072Z,50.93
2019-01-04T07:40:28.440Z,52.13
2019-01-04T07:42:57.967Z,53.57
2019-01-04T07:45:27.349Z,55.67
2019-01-04T07:47:56.882Z,54.57
2019-01-04T07:50:26.649Z,47.57
2019-01-04T07:52:56.148Z,54.47
2019-01-04T07:55:25.636Z,52.97
2019-01-04T07:57:55.177Z,47.80
2019-01-04T08:00:24.587Z,37.67
2019-01-04T08:02:55.753Z,40.00
2019-01-04T08:05:28.912Z,39.43
2019-01-04T08:07:58.310Z,42.80
2019-01-04T08:10:27.677Z,43.07
2019-01-04T08:12:57.100Z,61.27
2019-01-04T08:15:26.741Z,41.60
2019-01-04T08:17:56.177Z,41.20
2019-01-04T08:20:25.588Z,55.53
2019-01-04T08:22:55.090Z,49.00
2019-01-04T08:25:24.603Z,63.00
2019-01-04T08:27:54.026Z,49.20
2019-01-04T08:30:23.439Z,40.30
2019-01-04T08:32:52.901Z,55.03
2019-01-04T08:35:22.311Z,47.90
2019-01-04T08:37:51.753Z,35.00
2019-01-04T08:40:21.142Z,39.40
2019-01-04T08:42:50.680Z,40.17
2019-01-04T08:45:20.284Z,48.77
2019-01-04T08:47:49.803Z,56.80
2019-01-04T08:50:19.416Z,39.03
2019-01-04T08:52:48.969Z,39.37
2019-01-04T08:55:29.559Z,37.83
2019-01-04T08:57:59.020Z,49.87
2019-01-04T09:00:28.452Z,52.20
2019-01-04T09:02:57.970Z,54.03
2019-01-04T09:05:27.465Z,52.37
2019-01-04T09:07:57.088Z,55.27
2019-01-04T09:10:26.557Z,51.90
2019-01-04T09:12:56.156Z,45.20
2019-01-04T09:15:25.794Z,38.27
2019-01-04T09:17:55.265Z,44.60
2019-01-04T09:20:24.801Z,30.23
2019-01-04T09:22:54.472Z,33.97
2019-01-04T09:25:24.067Z,33.13
2019-01-04T09:27:53.538Z,30.50
2019-01-04T09:30:23.097Z,31.53
2019-01-04T09:32:52.722Z,33.27
2019-01-04T09:35:22.331Z,33.53
2019-01-04T09:37:51.774Z,30.00
2019-01-04T09:40:21.338Z,28.53
2019-01-04T09:42:50.737Z,34.10
2019-01-04T09:45:20.328Z,42.20
2019-01-04T09:47:49.784Z,33.50
2019-01-04T09:50:19.309Z,42.03
2019-01-04T09:52:48.769Z,31.90
2019-01-04T09:55:18.325Z,39.70
2019-01-04T09:57:47.963Z,48.10
2019-01-04T10:00:17.511Z,41.63
2019-01-04T10:02:47.313Z,37.37
2019-01-04T10:05:16.816Z,47.30
2019-01-04T10:07:46.436Z,43.07
2019-01-04T10:10:15.880Z,40.47
2019-01-04T10:12:45.345Z,38.70
2019-01-04T10:15:17.959Z,47.73
2019-01-04T10:17:47.617Z,46.53
2019-01-04T10:20:17.083Z,47.20
2019-01-04T10:22:46.542Z,48.40
2019-01-04T10:25:16.088Z,45.10
2019-01-04T10:27:45.671Z,36.53
2019-01-04T10:30:26.635Z,49.53
2019-01-04T10:32:56.191Z,48.20
2019-01-04T10:35:25.594Z,31.43
2019-01-04T10:37:55.109Z,33.40
2019-01-04T10:40:24.590Z,28.33
2019-01-04T10:42:54.193Z,24.33
2019-01-04T10:45:23.735Z,33.20
2019-01-04T10:47:53.164Z,22.80
2019-01-04T10:50:22.886Z,24.67
2019-01-04T10:52:52.358Z,38.27
2019-01-04T10:55:21.831Z,77.60
2019-01-04T10:57:51.387Z,32.90
2019-01-04T11:00:21.126Z,22.37
2019-01-04T11:02:50.593Z,26.27
2019-01-04T11:05:20.074Z,22.13
2019-01-04T11:07:49.660Z,20.20
2019-01-04T11:10:19.338Z,21.50
2019-01-04T11:12:48.925Z,23.23
2019-01-04T11:15:18.431Z,26.63
2019-01-04T11:17:48.641Z,26.23
2019-01-04T11:20:40.089Z,23.70
2019-01-04T11:23:45.234Z,18.97
2019-01-04T11:26:29.210Z,22.37
2019-01-04T11:29:58.077Z,22.50
2019-01-04T11:32:52.496Z,21.77
2019-01-04T11:35:41.991Z,19.30
2019-01-04T11:38:40.763Z,22.20
2019-01-04T11:42:12.837Z,27.83
2019-01-04T11:45:26.398Z,26.60
2019-01-04T11:48:10.149Z,21.50
2019-01-04T11:50:51.229Z,28.40
2019-01-04T11:53:21.911Z,24.60
2019-01-04T11:55:51.475Z,26.70
2019-01-04T11:58:40.003Z,20.00
2019-01-04T12:01:09.777Z,22.20
2019-01-04T12:03:39.275Z,22.93
2019-01-04T12:06:08.749Z,26.27
2019-01-04T12:08:38.307Z,23.50
2019-01-04T12:11:07.839Z,28.40
2019-01-04T12:13:37.539Z,33.73
2019-01-04T12:16:06.934Z,22.30
2019-01-04T12:18:36.535Z,23.83
2019-01-04T12:21:06.006Z,23.73
2019-01-04T12:23:36.543Z,25.83
2019-01-04T12:26:06.227Z,37.00
2019-01-04T12:28:35.602Z,31.10
2019-01-04T12:31:05.295Z,25.63
2019-01-04T12:33:34.771Z,29.73
2019-01-04T12:36:04.548Z,20.77
2019-01-04T12:38:34.191Z,23.07
2019-01-04T12:41:03.700Z,27.00
2019-01-04T12:43:33.208Z,17.27
2019-01-04T12:46:02.637Z,19.50
2019-01-04T12:48:32.337Z,22.87
2019-01-04T12:51:02.015Z,20.60
2019-01-04T12:53:31.690Z,20.70
2019-01-04T12:56:01.097Z,21.40
2019-01-04T12:58:30.644Z,22.13
2019-01-04T13:01:00.203Z,25.10
2019-01-04T13:03:29.629Z,15.50
2019-01-04T13:05:59.078Z,19.53
2019-01-04T13:08:28.562Z,19.13
2019-01-04T13:10:58.036Z,20.37
2019-01-04T13:13:27.655Z,20.00
2019-01-04T13:15:57.248Z,22.87
2019-01-04T13:18:26.680Z,18.00
2019-01-04T13:20:56.175Z,25.13
2019-01-04T13:23:25.578Z,18.47
2019-01-04T13:25:55.363Z,17.73
2019-01-04T13:28:24.969Z,17.80
2019-01-04T13:30:54.624Z,19.70
2019-01-04T13:33:24.000Z,15.97
2019-01-04T13:35:53.684Z,16.93
2019-01-04T13:38:23.088Z,17.53
2019-01-04T13:40:52.565Z,18.83
2019-01-04T13:43:22.206Z,22.10
2019-01-04T13:45:51.641Z,17.57
2019-01-04T13:48:21.153Z,21.60
2019-01-04T13:50:50.761Z,18.77
2019-01-04T13:53:20.525Z,16.20
2019-01-04T13:55:49.906Z,23.47
2019-01-04T13:58:19.325Z,19.67
2019-01-04T14:00:48.902Z,16.73
2019-01-04T14:03:18.346Z,13.87
2019-01-04T14:05:53.578Z,19.93
2019-01-04T14:08:23.238Z,18.77
2019-01-04T14:10:52.734Z,13.27
2019-01-04T14:13:22.245Z,33.73
2019-01-04T14:15:51.826Z,16.97
2019-01-04T14:18:21.382Z,16.10
2019-01-04T14:20:50.844Z,19.93
2019-01-04T14:23:20.539Z,21.80
2019-01-04T14:25:50.054Z,20.80
2019-01-04T14:28:19.790Z,24.47
2019-01-04T14:30:49.377Z,15.63
2019-01-04T14:33:18.881Z,21.47
2019-01-04T14:35:48.516Z,23.00
2019-01-04T14:38:17.985Z,21.30
2019-01-04T14:40:47.690Z,21.23
2019-01-04T14:43:17.359Z,22.70
2019-01-04T14:45:46.997Z,26.40
2019-01-04T14:48:16.667Z,19.87
2019-01-04T14:50:46.238Z,24.93
2019-01-04T14:53:17.155Z,22.00
2019-01-04T14:55:46.687Z,21.47
2019-01-04T14:58:16.521Z,24.77
2019-01-04T15:00:46.002Z,19.40
2019-01-04T15:03:15.383Z,24.93
2019-01-04T15:05:50.326Z,20.83
2019-01-04T15:08:16.276Z,19.00
2019-01-04T15:10:45.822Z,28.00
2019-01-04T15:13:15.484Z,20.47
2019-01-04T15:15:44.992Z,16.93
2019-01-04T15:18:14.513Z,15.23
2019-01-04T15:20:43.993Z,19.37
2019-01-04T15:23:13.518Z,14.60
2019-01-04T15:25:43.008Z,20.03
2019-01-04T15:28:12.436Z,18.37
2019-01-04T15:30:41.950Z,26.30
2019-01-04T15:33:11.536Z,18.30
2019-01-04T15:35:41.264Z,15.60
2019-01-04T15:38:10.814Z,19.33
2019-01-04T15:40:40.581Z,19.57
2019-01-04T15:43:10.093Z,30.67
2019-01-04T15:45:39.607Z,20.17
2019-01-04T15:48:09.063Z,22.40
2019-01-04T15:50:39.029Z,26.27
2019-01-04T15:53:08.542Z,32.53
2019-01-04T15:55:38.081Z,25.97
2019-01-04T15:58:07.563Z,38.30
2019-01-04T16:00:37.201Z,22.27
2019-01-04T16:03:06.817Z,22.00
2019-01-04T16:05:36.476Z,26.23
2019-01-04T16:08:06.028Z,27.20
2019-01-04T16:10:35.512Z,28.57
2019-01-04T16:13:05.038Z,39.60
2019-01-04T16:15:34.654Z,34.83
2019-01-04T16:18:04.572Z,29.47
2019-01-04T16:20:34.111Z,34.33
2019-01-04T16:23:03.745Z,25.53
2019-01-04T16:25:33.208Z,34.47
2019-01-04T16:28:02.633Z,32.73
2019-01-04T16:30:32.174Z,37.63
2019-01-04T16:33:01.789Z,31.87
2019-01-04T16:35:31.173Z,32.47
2019-01-04T16:38:00.554Z,40.50
2019-01-04T16:40:30.156Z,40.07
2019-01-04T16:42:59.605Z,34.17
2019-01-04T16:45:29.236Z,44.90
2019-01-04T16:47:59.671Z,39.80
2019-01-04T16:50:29.625Z,46.77
2019-01-04T16:52:59.570Z,46.27
2019-01-04T16:55:29.342Z,46.97
2019-01-04T16:57:58.885Z,46.93
2019-01-04T17:00:28.480Z,42.00
2019-01-04T17:02:58.129Z,54.43
2019-01-04T17:05:27.659Z,44.60
2019-01-04T17:07:57.224Z,49.83
2019-01-04T17:10:26.729Z,44.37
2019-01-04T17:12:56.323Z,43.57
2019-01-04T17:15:25.811Z,43.23
2019-01-04T17:17:55.461Z,38.37
2019-01-04T17:20:25.005Z,39.40
2019-01-04T17:22:54.489Z,51.57
2019-01-04T17:25:24.217Z,42.23
2019-01-04T17:27:53.967Z,52.37
2019-01-04T17:30:23.669Z,39.47
2019-01-04T17:32:53.417Z,48.90
2019-01-04T17:35:23.133Z,37.50
2019-01-04T17:37:52.867Z,43.50
2019-01-04T17:40:22.412Z,40.23
2019-01-04T17:42:51.995Z,47.60
2019-01-04T17:45:21.444Z,38.73
2019-01-04T17:47:50.978Z,42.30
2019-01-04T17:50:20.632Z,45.10
2019-01-04T17:52:50.319Z,54.83
2019-01-04T17:55:19.826Z,38.67
2019-01-04T17:57:49.335Z,38.17
2019-01-04T18:00:19.112Z,45.83
2019-01-04T18:02:48.770Z,38.87
2019-01-04T18:05:18.360Z,40.00
2019-01-04T18:07:48.004Z,46.30
2019-01-04T18:10:17.726Z,52.57
2019-01-04T18:12:47.514Z,52.63
2019-01-04T18:15:17.070Z,58.37
2019-01-04T18:17:46.646Z,84.70
2019-01-04T18:20:16.292Z,49.97
2019-01-04T18:22:46.077Z,52.17
2019-01-04T18:25:15.795Z,51.37
2019-01-04T18:27:45.474Z,55.23
2019-01-04T18:30:15.247Z,53.17
2019-01-04T18:32:44.842Z,55.23
2019-01-04T18:35:14.358Z,62.73
2019-01-04T18:37:44.116Z,64.60
2019-01-04T18:40:14.334Z,76.53
2019-01-04T18:42:44.197Z,52.03
2019-01-04T18:45:14.075Z,49.73
2019-01-04T18:47:43.747Z,69.53
2019-01-04T18:50:15.324Z,63.33
2019-01-04T18:52:44.950Z,58.40
2019-01-04T18:55:14.653Z,59.53
2019-01-04T18:57:44.145Z,61.77
2019-01-04T19:00:14.476Z,68.50
2019-01-04T19:02:44.483Z,60.30
2019-01-04T19:05:14.517Z,74.30
2019-01-04T19:07:44.533Z,77.60
2019-01-04T19:10:14.234Z,70.27
2019-01-04T19:12:44.187Z,73.80
2019-01-04T19:15:13.803Z,63.57
2019-01-04T19:17:43.906Z,78.63
2019-01-04T19:20:13.831Z,67.50
2019-01-04T19:22:43.391Z,72.00
2019-01-04T19:25:12.947Z,71.33
2019-01-04T19:27:42.602Z,71.40
2019-01-04T19:30:12.631Z,60.27
2019-01-04T19:32:42.335Z,56.93
2019-01-04T19:35:12.168Z,57.00
2019-01-04T19:37:41.780Z,64.70
2019-01-04T19:40:11.688Z,46.93
2019-01-04T19:42:41.684Z,60.03
2019-01-04T19:45:11.498Z,55.70
2019-01-04T19:47:41.298Z,54.47
2019-01-04T19:50:18.419Z,47.40
2019-01-04T19:52:48.276Z,53.63
2019-01-04T19:55:18.195Z,51.27
2019-01-04T19:57:47.861Z,49.40
2019-01-04T20:00:22.799Z,43.73
2019-01-04T20:02:52.787Z,49.73
2019-01-04T20:06:39.635Z,44.47
2019-01-04T20:10:10.773Z,40.70
2019-01-04T20:13:54.943Z,38.60
2019-01-04T20:16:53.463Z,45.43
2019-01-04T20:19:40.845Z,46.23
2019-01-04T20:22:28.735Z,42.43
2019-01-04T20:25:20.308Z,43.63
2019-01-04T20:28:07.933Z,46.03
2019-01-04T20:31:08.789Z,49.13
2019-01-04T20:33:57.456Z,38.97
2019-01-04T20:36:46.498Z,50.43
2019-01-04T20:39:34.560Z,39.57
2019-01-04T20:42:23.959Z,42.73
2019-01-04T20:45:33.627Z,51.70
2019-01-04T20:48:33.802Z,39.80
2019-01-04T20:51:30.159Z,48.67
2019-01-04T20:54:28.781Z,42.93
2019-01-04T20:57:20.794Z,47.07
2019-01-04T21:00:13.172Z,42.97
2019-01-04T21:03:02.358Z,36.57
2019-01-04T21:06:02.316Z,43.23
2019-01-04T21:09:11.096Z,42.80
2019-01-04T21:12:02.225Z,41.00
2019-01-04T21:15:04.383Z,39.47
2019-01-04T21:18:10.035Z,43.20
2019-01-04T21:21:02.887Z,42.10
2019-01-04T21:24:04.228Z,40.93
2019-01-04T21:27:05.865Z,42.13
2019-01-04T21:29:58.156Z,46.83
2019-01-04T21:32:54.257Z,36.00
2019-01-04T21:35:44.342Z,35.37
2019-01-04T21:38:48.766Z,35.93
2019-01-04T21:41:49.463Z,34.63
2019-01-04T21:44:43.669Z,23.80
2019-01-04T21:47:32.543Z,31.40
2019-01-04T21:50:40.244Z,37.33
2019-01-04T21:53:28.520Z,31.30
2019-01-04T21:56:32.500Z,36.23
2019-01-04T21:59:40.503Z,38.13
2019-01-04T22:02:41.761Z,26.60
2019-01-04T22:05:30.208Z,30.40
2019-01-04T22:08:28.042Z,25.63
2019-01-04T22:11:30.143Z,36.87
2019-01-04T22:14:17.408Z,31.10
2019-01-04T22:17:05.846Z,30.00
2019-01-04T22:20:07.274Z,32.47
2019-01-04T22:23:14.967Z,35.67
2019-01-04T22:26:05.083Z,38.47
2019-01-04T22:28:49.463Z,36.17
2019-01-04T22:31:37.806Z,35.53
2019-01-04T22:34:25.394Z,32.23
2019-01-04T22:37:17.259Z,36.40
2019-01-04T22:40:04.690Z,36.17
2019-01-04T22:43:11.968Z,34.30
2019-01-04T22:45:59.792Z,33.77
2019-01-04T22:48:46.397Z,31.10
2019-01-04T22:51:40.981Z,30.47
2019-01-04T22:54:28.309Z,33.00
2019-01-04T22:57:32.139Z,29.30
2019-01-04T23:00:19.591Z,32.60
2019-01-04T23:03:10.813Z,35.17
2019-01-04T23:05:57.980Z,38.20
2019-01-04T23:08:46.430Z,39.50
2019-01-04T23:11:47.128Z,31.50
2019-01-04T23:14:35.857Z,33.30
2019-01-04T23:17:24.276Z,29.40
2019-01-04T23:20:24.747Z,40.83
2019-01-04T23:23:16.415Z,33.30
2019-01-04T23:26:03.059Z,40.07
2019-01-04T23:28:51.561Z,31.27
2019-01-04T23:31:52.319Z,41.63
2019-01-04T23:34:39.572Z,38.10
2019-01-04T23:37:26.904Z,46.13
2019-01-04T23:40:14.868Z,38.63
2019-01-04T23:43:02.211Z,44.40
2019-01-04T23:45:49.854Z,46.77
2019-01-04T23:48:41.400Z,37.87
2019-01-04T23:51:29.984Z,53.03
2019-01-04T23:54:18.608Z,45.77
2019-01-04T23:57:05.940Z,41.53
2019-01-04T23:59:57.591Z,43.70
